sensor_id;sensor_type;location;lat;lon;timestamp;pressure;altitude;pressure_sealevel;temperature;humidity
70027;BME280;57506;50.092;15.804;2022-07-06T00:00:47;99425.22;;;13.46;100.00
70027;BME280;57506;50.092;15.804;2022-07-06T00:03:13;99425.19;;;13.40;100.00
70027;BME280;57506;50.092;15.804;2022-07-06T00:05:38;99410.22;;;13.44;100.00
70027;BME280;57506;50.092;15.804;2022-07-06T00:08:04;99419.38;;;13.43;100.00
70027;BME280;57506;50.092;15.804;2022-07-06T00:10:30;99424.56;;;13.44;100.00
70027;BME280;57506;50.092;15.804;2022-07-06T00:12:56;99422.47;;;13.40;100.00
70027;BME280;57506;50.092;15.804;2022-07-06T00:15:21;99427.28;;;13.31;100.00
70027;BME280;57506;50.092;15.804;2022-07-06T00:17:47;99431.22;;;13.28;100.00
70027;BME280;57506;50.092;15.804;2022-07-06T00:20:12;99433.44;;;13.12;100.00
70027;BME280;57506;50.092;15.804;2022-07-06T00:22:38;99434.84;;;13.01;100.00
70027;BME280;57506;50.092;15.804;2022-07-06T00:25:04;99422.31;;;12.80;100.00
70027;BME280;57506;50.092;15.804;2022-07-06T00:27:30;99439.72;;;12.71;100.00
70027;BME280;57506;50.092;15.804;2022-07-06T00:29:55;99426.16;;;12.58;100.00
70027;BME280;57506;50.092;15.804;2022-07-06T00:32:21;99421.16;;;12.55;100.00
70027;BME280;57506;50.092;15.804;2022-07-06T00:34:47;99439.47;;;12.59;100.00
70027;BME280;57506;50.092;15.804;2022-07-06T00:37:12;99430.44;;;12.87;100.00
70027;BME280;57506;50.092;15.804;2022-07-06T00:39:40;99415.91;;;12.94;100.00
70027;BME280;57506;50.092;15.804;2022-07-06T00:42:06;99420.91;;;13.04;100.00
70027;BME280;57506;50.092;15.804;2022-07-06T00:44:32;99424.47;;;13.11;100.00
70027;BME280;57506;50.092;15.804;2022-07-06T00:46:59;99419.69;;;13.07;100.00
70027;BME280;57506;50.092;15.804;2022-07-06T00:49:24;99409.66;;;13.01;100.00
70027;BME280;57506;50.092;15.804;2022-07-06T00:52:09;99417.97;;;12.92;100.00
70027;BME280;57506;50.092;15.804;2022-07-06T00:54:36;99423.09;;;12.74;100.00
70027;BME280;57506;50.092;15.804;2022-07-06T00:57:02;99424.34;;;12.65;100.00
70027;BME280;57506;50.092;15.804;2022-07-06T00:59:28;99415.41;;;12.71;100.00
70027;BME280;57506;50.092;15.804;2022-07-06T01:01:53;99422.06;;;12.75;100.00
70027;BME280;57506;50.092;15.804;2022-07-06T01:04:19;99416.66;;;12.75;100.00
70027;BME280;57506;50.092;15.804;2022-07-06T01:06:45;99420.00;;;12.77;100.00
70027;BME280;57506;50.092;15.804;2022-07-06T01:09:11;99427.19;;;12.57;100.00
70027;BME280;57506;50.092;15.804;2022-07-06T01:11:37;99422.75;;;12.43;100.00
70027;BME280;57506;50.092;15.804;2022-07-06T01:14:03;99385.19;;;12.13;100.00
70027;BME280;57506;50.092;15.804;2022-07-06T01:16:29;99421.53;;;12.45;100.00
70027;BME280;57506;50.092;15.804;2022-07-06T01:18:55;99417.34;;;12.43;100.00
70027;BME280;57506;50.092;15.804;2022-07-06T01:21:21;99410.84;;;12.31;100.00
70027;BME280;57506;50.092;15.804;2022-07-06T01:23:47;99403.59;;;12.38;100.00
70027;BME280;57506;50.092;15.804;2022-07-06T01:26:19;99414.75;;;12.63;100.00
70027;BME280;57506;50.092;15.804;2022-07-06T01:28:46;99412.25;;;12.61;100.00
70027;BME280;57506;50.092;15.804;2022-07-06T01:31:22;99424.50;;;12.57;100.00
70027;BME280;57506;50.092;15.804;2022-07-06T01:33:49;99423.69;;;12.63;100.00
70027;BME280;57506;50.092;15.804;2022-07-06T01:36:16;99426.22;;;12.71;100.00
70027;BME280;57506;50.092;15.804;2022-07-06T01:38:54;99410.81;;;12.72;100.00
70027;BME280;57506;50.092;15.804;2022-07-06T01:41:23;99419.97;;;12.71;100.00
70027;BME280;57506;50.092;15.804;2022-07-06T01:43:48;99409.16;;;12.64;100.00
70027;BME280;57506;50.092;15.804;2022-07-06T01:46:14;99404.97;;;12.68;100.00
70027;BME280;57506;50.092;15.804;2022-07-06T01:48:40;99397.28;;;12.65;100.00
70027;BME280;57506;50.092;15.804;2022-07-06T01:51:05;99410.56;;;12.60;100.00
70027;BME280;57506;50.092;15.804;2022-07-06T01:53:32;99414.47;;;12.51;100.00
70027;BME280;57506;50.092;15.804;2022-07-06T01:55:57;99413.56;;;12.37;100.00
70027;BME280;57506;50.092;15.804;2022-07-06T01:58:23;99398.31;;;12.16;100.00
70027;BME280;57506;50.092;15.804;2022-07-06T02:00:49;99402.19;;;12.07;100.00
70027;BME280;57506;50.092;15.804;2022-07-06T02:03:14;99409.63;;;11.99;100.00
70027;BME280;57506;50.092;15.804;2022-07-06T02:05:40;99411.22;;;11.93;100.00
70027;BME280;57506;50.092;15.804;2022-07-06T02:08:05;99420.75;;;11.89;100.00
70027;BME280;57506;50.092;15.804;2022-07-06T02:10:31;99428.28;;;11.94;100.00
70027;BME280;57506;50.092;15.804;2022-07-06T02:12:57;99423.72;;;11.94;100.00
70027;BME280;57506;50.092;15.804;2022-07-06T02:15:22;99431.88;;;12.01;100.00
70027;BME280;57506;50.092;15.804;2022-07-06T02:17:48;99437.75;;;12.11;100.00
70027;BME280;57506;50.092;15.804;2022-07-06T02:20:13;99437.56;;;12.19;100.00
70027;BME280;57506;50.092;15.804;2022-07-06T02:22:39;99438.03;;;12.22;100.00
70027;BME280;57506;50.092;15.804;2022-07-06T02:25:05;99447.41;;;12.26;100.00
70027;BME280;57506;50.092;15.804;2022-07-06T02:27:30;99449.94;;;12.35;100.00
70027;BME280;57506;50.092;15.804;2022-07-06T02:29:56;99455.00;;;12.44;100.00
70027;BME280;57506;50.092;15.804;2022-07-06T02:32:22;99453.78;;;12.53;100.00
70027;BME280;57506;50.092;15.804;2022-07-06T02:34:47;99455.94;;;12.65;100.00
70027;BME280;57506;50.092;15.804;2022-07-06T02:37:13;99434.97;;;12.73;100.00
70027;BME280;57506;50.092;15.804;2022-07-06T02:39:39;99424.38;;;12.85;100.00
70027;BME280;57506;50.092;15.804;2022-07-06T02:42:04;99415.03;;;12.87;100.00
70027;BME280;57506;50.092;15.804;2022-07-06T02:44:30;99406.72;;;12.82;100.00
70027;BME280;57506;50.092;15.804;2022-07-06T02:46:55;99430.63;;;12.79;100.00
70027;BME280;57506;50.092;15.804;2022-07-06T02:49:21;99436.59;;;12.68;100.00
70027;BME280;57506;50.092;15.804;2022-07-06T02:51:46;99445.91;;;12.58;100.00
70027;BME280;57506;50.092;15.804;2022-07-06T02:54:12;99446.91;;;12.51;100.00
70027;BME280;57506;50.092;15.804;2022-07-06T02:56:37;99427.06;;;12.31;100.00
70027;BME280;57506;50.092;15.804;2022-07-06T02:59:03;99428.09;;;12.30;100.00
70027;BME280;57506;50.092;15.804;2022-07-06T03:01:28;99419.31;;;12.21;100.00
70027;BME280;57506;50.092;15.804;2022-07-06T03:03:54;99420.53;;;12.18;100.00
70027;BME280;57506;50.092;15.804;2022-07-06T03:06:19;99423.00;;;12.13;100.00
70027;BME280;57506;50.092;15.804;2022-07-06T03:08:45;99438.38;;;12.13;100.00
70027;BME280;57506;50.092;15.804;2022-07-06T03:11:11;99441.53;;;12.16;100.00
70027;BME280;57506;50.092;15.804;2022-07-06T03:13:36;99443.22;;;12.17;100.00
70027;BME280;57506;50.092;15.804;2022-07-06T03:16:02;99432.59;;;12.16;100.00
70027;BME280;57506;50.092;15.804;2022-07-06T03:18:27;99447.53;;;12.18;100.00
70027;BME280;57506;50.092;15.804;2022-07-06T03:20:53;99452.38;;;12.23;100.00
70027;BME280;57506;50.092;15.804;2022-07-06T03:23:19;99453.91;;;12.04;100.00
70027;BME280;57506;50.092;15.804;2022-07-06T03:25:45;99463.03;;;12.03;100.00
70027;BME280;57506;50.092;15.804;2022-07-06T03:28:11;99453.50;;;12.07;100.00
70027;BME280;57506;50.092;15.804;2022-07-06T03:30:37;99468.56;;;12.16;100.00
70027;BME280;57506;50.092;15.804;2022-07-06T03:33:02;99476.09;;;12.27;100.00
70027;BME280;57506;50.092;15.804;2022-07-06T03:35:28;99479.25;;;12.31;100.00
70027;BME280;57506;50.092;15.804;2022-07-06T03:37:54;99480.75;;;12.40;100.00
70027;BME280;57506;50.092;15.804;2022-07-06T03:40:20;99475.59;;;12.52;100.00
70027;BME280;57506;50.092;15.804;2022-07-06T03:42:45;99464.00;;;12.58;100.00
70027;BME280;57506;50.092;15.804;2022-07-06T03:45:11;99474.50;;;12.74;100.00
70027;BME280;57506;50.092;15.804;2022-07-06T03:47:36;99481.00;;;12.86;100.00
70027;BME280;57506;50.092;15.804;2022-07-06T03:50:02;99470.84;;;13.02;100.00
70027;BME280;57506;50.092;15.804;2022-07-06T03:52:28;99480.94;;;13.21;100.00
70027;BME280;57506;50.092;15.804;2022-07-06T03:54:55;99490.31;;;13.25;100.00
70027;BME280;57506;50.092;15.804;2022-07-06T03:57:20;99486.81;;;13.31;100.00
70027;BME280;57506;50.092;15.804;2022-07-06T03:59:46;99473.06;;;13.32;100.00
70027;BME280;57506;50.092;15.804;2022-07-06T04:02:12;99474.72;;;13.34;100.00
70027;BME280;57506;50.092;15.804;2022-07-06T04:04:37;99483.31;;;13.44;100.00
70027;BME280;57506;50.092;15.804;2022-07-06T04:07:03;99486.66;;;13.46;100.00
70027;BME280;57506;50.092;15.804;2022-07-06T04:09:29;99483.28;;;13.50;100.00
70027;BME280;57506;50.092;15.804;2022-07-06T04:11:54;99483.50;;;13.49;100.00
70027;BME280;57506;50.092;15.804;2022-07-06T04:14:20;99476.63;;;13.53;100.00
70027;BME280;57506;50.092;15.804;2022-07-06T04:16:45;99489.78;;;13.62;100.00
70027;BME280;57506;50.092;15.804;2022-07-06T04:19:11;99484.56;;;13.68;100.00
70027;BME280;57506;50.092;15.804;2022-07-06T04:21:36;99482.50;;;13.76;100.00
70027;BME280;57506;50.092;15.804;2022-07-06T04:24:02;99478.13;;;13.82;100.00
70027;BME280;57506;50.092;15.804;2022-07-06T04:26:28;99484.41;;;13.95;100.00
70027;BME280;57506;50.092;15.804;2022-07-06T04:28:53;99497.09;;;14.08;100.00
70027;BME280;57506;50.092;15.804;2022-07-06T04:31:19;99499.81;;;14.08;100.00
70027;BME280;57506;50.092;15.804;2022-07-06T04:33:44;99498.56;;;14.11;100.00
70027;BME280;57506;50.092;15.804;2022-07-06T04:36:10;99498.56;;;14.17;100.00
70027;BME280;57506;50.092;15.804;2022-07-06T04:38:36;99495.66;;;14.25;100.00
70027;BME280;57506;50.092;15.804;2022-07-06T04:41:02;99519.19;;;14.18;100.00
70027;BME280;57506;50.092;15.804;2022-07-06T04:43:27;99506.50;;;14.12;100.00
70027;BME280;57506;50.092;15.804;2022-07-06T04:45:53;99516.28;;;14.26;100.00
70027;BME280;57506;50.092;15.804;2022-07-06T04:48:19;99511.06;;;14.25;100.00
70027;BME280;57506;50.092;15.804;2022-07-06T04:50:45;99490.22;;;14.25;100.00
70027;BME280;57506;50.092;15.804;2022-07-06T04:53:10;99499.00;;;14.41;100.00
70027;BME280;57506;50.092;15.804;2022-07-06T04:55:36;99502.09;;;14.38;100.00
70027;BME280;57506;50.092;15.804;2022-07-06T04:58:01;99496.03;;;14.35;100.00
70027;BME280;57506;50.092;15.804;2022-07-06T05:00:27;99492.28;;;14.36;100.00
70027;BME280;57506;50.092;15.804;2022-07-06T05:02:53;99514.84;;;14.44;100.00
70027;BME280;57506;50.092;15.804;2022-07-06T05:05:18;99530.66;;;14.47;100.00
70027;BME280;57506;50.092;15.804;2022-07-06T05:07:44;99529.41;;;14.56;100.00
70027;BME280;57506;50.092;15.804;2022-07-06T05:10:10;99521.06;;;14.57;100.00
70027;BME280;57506;50.092;15.804;2022-07-06T05:12:37;99536.91;;;14.74;100.00
70027;BME280;57506;50.092;15.804;2022-07-06T05:15:03;99563.78;;;14.88;100.00
70027;BME280;57506;50.092;15.804;2022-07-06T05:17:29;99545.44;;;14.64;100.00
70027;BME280;57506;50.092;15.804;2022-07-06T05:19:54;99511.91;;;14.58;100.00
70027;BME280;57506;50.092;15.804;2022-07-06T05:22:20;99495.81;;;14.57;100.00
70027;BME280;57506;50.092;15.804;2022-07-06T05:24:46;99494.38;;;14.54;100.00
70027;BME280;57506;50.092;15.804;2022-07-06T05:27:12;99500.59;;;14.61;100.00
70027;BME280;57506;50.092;15.804;2022-07-06T05:29:37;99503.50;;;14.73;100.00
70027;BME280;57506;50.092;15.804;2022-07-06T05:32:03;99506.19;;;14.80;100.00
70027;BME280;57506;50.092;15.804;2022-07-06T05:34:29;99496.00;;;14.75;100.00
70027;BME280;57506;50.092;15.804;2022-07-06T05:36:55;99498.88;;;14.80;100.00
70027;BME280;57506;50.092;15.804;2022-07-06T05:39:20;99519.75;;;14.86;100.00
70027;BME280;57506;50.092;15.804;2022-07-06T05:41:48;99522.66;;;14.85;100.00
70027;BME280;57506;50.092;15.804;2022-07-06T05:44:14;99515.56;;;14.90;100.00
70027;BME280;57506;50.092;15.804;2022-07-06T05:46:39;99509.44;;;15.08;100.00
70027;BME280;57506;50.092;15.804;2022-07-06T05:49:05;99514.97;;;15.26;100.00
70027;BME280;57506;50.092;15.804;2022-07-06T05:51:49;99510.56;;;15.32;100.00
70027;BME280;57506;50.092;15.804;2022-07-06T05:54:15;99515.28;;;15.50;100.00
70027;BME280;57506;50.092;15.804;2022-07-06T05:56:40;99529.22;;;15.66;100.00
70027;BME280;57506;50.092;15.804;2022-07-06T05:59:06;99534.22;;;15.69;98.55
70027;BME280;57506;50.092;15.804;2022-07-06T06:01:31;99561.94;;;15.78;96.85
70027;BME280;57506;50.092;15.804;2022-07-06T06:03:57;99567.34;;;15.85;100.00
70027;BME280;57506;50.092;15.804;2022-07-06T06:06:25;99575.38;;;15.73;100.00
70027;BME280;57506;50.092;15.804;2022-07-06T06:08:51;99590.91;;;15.59;100.00
70027;BME280;57506;50.092;15.804;2022-07-06T06:11:16;99590.06;;;15.52;100.00
70027;BME280;57506;50.092;15.804;2022-07-06T06:13:42;99596.31;;;15.59;100.00
70027;BME280;57506;50.092;15.804;2022-07-06T06:16:08;99594.06;;;15.56;100.00
70027;BME280;57506;50.092;15.804;2022-07-06T06:18:33;99594.84;;;15.63;100.00
70027;BME280;57506;50.092;15.804;2022-07-06T06:20:59;99613.38;;;15.80;100.00
70027;BME280;57506;50.092;15.804;2022-07-06T06:23:25;99615.69;;;15.76;100.00
70027;BME280;57506;50.092;15.804;2022-07-06T06:25:50;99623.63;;;15.78;100.00
70027;BME280;57506;50.092;15.804;2022-07-06T06:28:16;99632.38;;;15.86;100.00
70027;BME280;57506;50.092;15.804;2022-07-06T06:30:42;99642.47;;;15.72;100.00
70027;BME280;57506;50.092;15.804;2022-07-06T06:33:16;99655.66;;;15.62;100.00
70027;BME280;57506;50.092;15.804;2022-07-06T06:35:51;99651.69;;;15.71;100.00
70027;BME280;57506;50.092;15.804;2022-07-06T06:38:18;99637.47;;;15.69;100.00
70027;BME280;57506;50.092;15.804;2022-07-06T06:40:45;99629.16;;;15.96;100.00
70027;BME280;57506;50.092;15.804;2022-07-06T06:43:11;99634.91;;;16.19;100.00
70027;BME280;57506;50.092;15.804;2022-07-06T06:45:37;99634.50;;;16.40;100.00
70027;BME280;57506;50.092;15.804;2022-07-06T06:48:03;99599.28;;;16.52;100.00
70027;BME280;57506;50.092;15.804;2022-07-06T06:50:29;99610.84;;;17.16;100.00
70027;BME280;57506;50.092;15.804;2022-07-06T06:52:54;99624.31;;;17.47;100.00
70027;BME280;57506;50.092;15.804;2022-07-06T06:55:20;99604.28;;;17.90;98.68
70027;BME280;57506;50.092;15.804;2022-07-06T06:57:46;99599.06;;;18.18;96.42
70027;BME280;57506;50.092;15.804;2022-07-06T07:00:12;99612.03;;;18.46;93.34
70027;BME280;57506;50.092;15.804;2022-07-06T07:02:38;99603.72;;;18.52;91.10
70027;BME280;57506;50.092;15.804;2022-07-06T07:05:05;99605.31;;;18.60;91.17
70027;BME280;57506;50.092;15.804;2022-07-06T07:07:31;99586.66;;;18.04;87.14
70027;BME280;57506;50.092;15.804;2022-07-06T07:09:57;99596.50;;;17.75;87.92
70027;BME280;57506;50.092;15.804;2022-07-06T07:12:24;99603.00;;;17.56;89.62
70027;BME280;57506;50.092;15.804;2022-07-06T07:14:50;99600.25;;;17.26;89.70
70027;BME280;57506;50.092;15.804;2022-07-06T07:17:17;99608.56;;;17.12;90.70
70027;BME280;57506;50.092;15.804;2022-07-06T07:19:43;99590.69;;;16.98;92.67
70027;BME280;57506;50.092;15.804;2022-07-06T07:22:08;99586.09;;;17.17;94.96
70027;BME280;57506;50.092;15.804;2022-07-06T07:24:34;99586.47;;;17.02;91.66
70027;BME280;57506;50.092;15.804;2022-07-06T07:26:59;99578.75;;;16.99;91.45
70027;BME280;57506;50.092;15.804;2022-07-06T07:29:25;99571.25;;;16.95;90.39
70027;BME280;57506;50.092;15.804;2022-07-06T07:31:51;99589.69;;;16.93;91.20
70027;BME280;57506;50.092;15.804;2022-07-06T07:34:18;99593.13;;;16.88;90.48
70027;BME280;57506;50.092;15.804;2022-07-06T07:36:43;99595.13;;;16.74;93.57
70027;BME280;57506;50.092;15.804;2022-07-06T07:39:09;99590.06;;;16.78;94.91
70027;BME280;57506;50.092;15.804;2022-07-06T07:41:35;99601.41;;;16.75;92.63
70027;BME280;57506;50.092;15.804;2022-07-06T07:44:00;99593.31;;;16.68;92.82
70027;BME280;57506;50.092;15.804;2022-07-06T07:46:26;99582.88;;;16.59;95.80
70027;BME280;57506;50.092;15.804;2022-07-06T07:48:52;99593.63;;;16.54;94.97
70027;BME280;57506;50.092;15.804;2022-07-06T07:51:17;99602.91;;;16.71;95.85
70027;BME280;57506;50.092;15.804;2022-07-06T07:53:44;99589.41;;;16.83;93.85
70027;BME280;57506;50.092;15.804;2022-07-06T07:56:10;99585.66;;;17.02;91.80
70027;BME280;57506;50.092;15.804;2022-07-06T07:58:36;99589.66;;;17.36;96.81
70027;BME280;57506;50.092;15.804;2022-07-06T08:01:04;99594.56;;;17.64;91.44
70027;BME280;57506;50.092;15.804;2022-07-06T08:03:30;99590.00;;;17.58;88.04
70027;BME280;57506;50.092;15.804;2022-07-06T08:05:57;99598.81;;;17.90;85.79
70027;BME280;57506;50.092;15.804;2022-07-06T08:08:23;99606.22;;;18.01;83.99
70027;BME280;57506;50.092;15.804;2022-07-06T08:10:48;99605.84;;;17.97;82.86
70027;BME280;57506;50.092;15.804;2022-07-06T08:13:14;99599.63;;;18.20;86.52
70027;BME280;57506;50.092;15.804;2022-07-06T08:15:40;99599.53;;;18.27;80.18
70027;BME280;57506;50.092;15.804;2022-07-06T08:18:06;99595.88;;;18.03;81.76
70027;BME280;57506;50.092;15.804;2022-07-06T08:20:32;99594.91;;;18.27;83.94
70027;BME280;57506;50.092;15.804;2022-07-06T08:22:58;99590.19;;;18.34;84.03
70027;BME280;57506;50.092;15.804;2022-07-06T08:25:23;99585.00;;;18.68;83.65
70027;BME280;57506;50.092;15.804;2022-07-06T08:27:49;99601.28;;;18.74;77.23
70027;BME280;57506;50.092;15.804;2022-07-06T08:30:15;99593.22;;;18.79;79.48
70027;BME280;57506;50.092;15.804;2022-07-06T08:32:41;99601.53;;;18.73;81.43
70027;BME280;57506;50.092;15.804;2022-07-06T08:35:08;99600.94;;;18.94;79.48
70027;BME280;57506;50.092;15.804;2022-07-06T08:37:34;99601.28;;;19.09;74.47
70027;BME280;57506;50.092;15.804;2022-07-06T08:40:00;99615.16;;;19.19;73.87
70027;BME280;57506;50.092;15.804;2022-07-06T08:42:29;99606.13;;;19.31;76.35
70027;BME280;57506;50.092;15.804;2022-07-06T08:44:59;99613.31;;;19.48;74.93
70027;BME280;57506;50.092;15.804;2022-07-06T08:47:26;99605.84;;;19.96;77.41
70027;BME280;57506;50.092;15.804;2022-07-06T08:49:53;99592.25;;;20.17;73.50
70027;BME280;57506;50.092;15.804;2022-07-06T08:52:19;99596.81;;;20.40;77.46
70027;BME280;57506;50.092;15.804;2022-07-06T08:54:45;99592.72;;;20.26;69.30
70027;BME280;57506;50.092;15.804;2022-07-06T08:57:11;99595.84;;;20.35;72.52
70027;BME280;57506;50.092;15.804;2022-07-06T08:59:38;99605.56;;;20.25;68.19
70027;BME280;57506;50.092;15.804;2022-07-06T09:02:04;99595.19;;;20.27;72.28
70027;BME280;57506;50.092;15.804;2022-07-06T09:04:32;99598.16;;;20.09;68.77
70027;BME280;57506;50.092;15.804;2022-07-06T09:06:59;99597.75;;;19.89;69.25
70027;BME280;57506;50.092;15.804;2022-07-06T09:09:25;99594.38;;;20.27;69.18
70027;BME280;57506;50.092;15.804;2022-07-06T09:11:51;99584.44;;;20.71;65.97
70027;BME280;57506;50.092;15.804;2022-07-06T09:14:18;99586.31;;;21.04;65.87
70027;BME280;57506;50.092;15.804;2022-07-06T09:16:51;99592.09;;;21.46;61.13
70027;BME280;57506;50.092;15.804;2022-07-06T09:19:17;99598.09;;;21.65;58.99
70027;BME280;57506;50.092;15.804;2022-07-06T09:21:43;99604.28;;;21.17;61.38
70027;BME280;57506;50.092;15.804;2022-07-06T09:24:11;99594.22;;;20.84;60.50
70027;BME280;57506;50.092;15.804;2022-07-06T09:26:37;99605.09;;;20.62;56.61
70027;BME280;57506;50.092;15.804;2022-07-06T09:29:04;99607.53;;;20.42;57.18
70027;BME280;57506;50.092;15.804;2022-07-06T09:31:31;99597.66;;;20.57;57.86
70027;BME280;57506;50.092;15.804;2022-07-06T09:36:42;99581.41;;;21.23;56.74
70027;BME280;57506;50.092;15.804;2022-07-06T09:39:22;99586.44;;;21.53;56.95
70027;BME280;57506;50.092;15.804;2022-07-06T09:42:07;99601.72;;;20.72;55.18
70027;BME280;57506;50.092;15.804;2022-07-06T09:44:37;99586.66;;;20.91;59.11
70027;BME280;57506;50.092;15.804;2022-07-06T09:47:08;99588.69;;;21.17;57.46
70027;BME280;57506;50.092;15.804;2022-07-06T09:49:35;99587.47;;;21.08;56.21
70027;BME280;57506;50.092;15.804;2022-07-06T09:52:03;99594.03;;;21.24;54.74
70027;BME280;57506;50.092;15.804;2022-07-06T09:54:30;99575.09;;;21.22;56.74
70027;BME280;57506;50.092;15.804;2022-07-06T09:56:56;99586.16;;;21.33;57.70
70027;BME280;57506;50.092;15.804;2022-07-06T09:59:27;99581.50;;;21.33;57.04
70027;BME280;57506;50.092;15.804;2022-07-06T10:01:58;99590.25;;;21.52;59.01
70027;BME280;57506;50.092;15.804;2022-07-06T10:04:26;99580.66;;;21.76;58.81
70027;BME280;57506;50.092;15.804;2022-07-06T10:06:52;99580.31;;;21.94;55.27
70027;BME280;57506;50.092;15.804;2022-07-06T10:09:20;99590.13;;;21.63;54.98
70027;BME280;57506;50.092;15.804;2022-07-06T10:11:53;99594.44;;;21.59;58.09
70027;BME280;57506;50.092;15.804;2022-07-06T10:14:24;99578.63;;;21.67;57.36
70027;BME280;57506;50.092;15.804;2022-07-06T10:16:51;99578.88;;;21.87;53.39
70027;BME280;57506;50.092;15.804;2022-07-06T10:19:18;99577.22;;;22.13;54.38
70027;BME280;57506;50.092;15.804;2022-07-06T10:21:45;99577.63;;;22.58;56.47
70027;BME280;57506;50.092;15.804;2022-07-06T10:24:12;99594.94;;;22.27;52.23
70027;BME280;57506;50.092;15.804;2022-07-06T10:26:38;99584.31;;;22.09;55.00
70027;BME280;57506;50.092;15.804;2022-07-06T10:29:05;99559.59;;;22.36;52.34
70027;BME280;57506;50.092;15.804;2022-07-06T10:31:32;99568.09;;;22.66;55.52
70027;BME280;57506;50.092;15.804;2022-07-06T10:34:00;99571.09;;;23.01;50.52
70027;BME280;57506;50.092;15.804;2022-07-06T10:36:27;99564.19;;;22.62;51.84
70027;BME280;57506;50.092;15.804;2022-07-06T10:38:54;99567.44;;;22.86;51.47
70027;BME280;57506;50.092;15.804;2022-07-06T10:41:33;99571.69;;;23.03;49.42
70027;BME280;57506;50.092;15.804;2022-07-06T10:44:24;99562.47;;;22.83;49.96
70027;BME280;57506;50.092;15.804;2022-07-06T10:46:55;99562.00;;;22.96;50.53
70027;BME280;57506;50.092;15.804;2022-07-06T10:49:22;99554.09;;;23.05;50.88
70027;BME280;57506;50.092;15.804;2022-07-06T10:51:49;99551.94;;;23.17;46.60
70027;BME280;57506;50.092;15.804;2022-07-06T10:54:15;99550.47;;;22.62;46.95
70027;BME280;57506;50.092;15.804;2022-07-06T10:56:49;99559.44;;;22.84;51.93
70027;BME280;57506;50.092;15.804;2022-07-06T10:59:21;99555.25;;;23.19;47.46
70027;BME280;57506;50.092;15.804;2022-07-06T11:04:41;99554.44;;;22.44;46.22
70027;BME280;57506;50.092;15.804;2022-07-06T11:07:10;99547.28;;;22.11;49.09
70027;BME280;57506;50.092;15.804;2022-07-06T11:09:36;99552.59;;;21.96;47.76
70027;BME280;57506;50.092;15.804;2022-07-06T11:12:15;99547.56;;;22.10;49.48
70027;BME280;57506;50.092;15.804;2022-07-06T11:14:42;99556.09;;;22.45;48.57
70027;BME280;57506;50.092;15.804;2022-07-06T11:17:10;99550.78;;;22.65;48.71
70027;BME280;57506;50.092;15.804;2022-07-06T11:19:36;99550.00;;;22.70;44.70
70027;BME280;57506;50.092;15.804;2022-07-06T11:22:07;99546.56;;;22.53;45.84
70027;BME280;57506;50.092;15.804;2022-07-06T11:24:38;99555.75;;;22.74;48.00
70027;BME280;57506;50.092;15.804;2022-07-06T11:27:05;99556.19;;;22.87;43.74
70027;BME280;57506;50.092;15.804;2022-07-06T11:29:33;99552.50;;;23.24;46.72
70027;BME280;57506;50.092;15.804;2022-07-06T11:32:01;99560.13;;;23.54;42.74
70027;BME280;57506;50.092;15.804;2022-07-06T11:34:34;99545.66;;;23.26;45.45
70027;BME280;57506;50.092;15.804;2022-07-06T11:37:01;99552.31;;;23.41;43.85
70027;BME280;57506;50.092;15.804;2022-07-06T11:39:29;99541.66;;;23.54;41.39
70027;BME280;57506;50.092;15.804;2022-07-06T11:41:55;99540.91;;;23.79;43.36
70027;BME280;57506;50.092;15.804;2022-07-06T11:44:21;99533.19;;;23.76;41.15
70027;BME280;57506;50.092;15.804;2022-07-06T11:46:48;99540.94;;;24.04;40.78
70027;BME280;57506;50.092;15.804;2022-07-06T11:49:14;99543.94;;;23.88;42.46
70027;BME280;57506;50.092;15.804;2022-07-06T11:51:41;99544.22;;;23.81;40.75
70027;BME280;57506;50.092;15.804;2022-07-06T11:54:11;99535.09;;;23.60;40.65
70027;BME280;57506;50.092;15.804;2022-07-06T11:56:38;99543.09;;;23.72;39.45
70027;BME280;57506;50.092;15.804;2022-07-06T11:59:10;99527.41;;;23.67;38.22
70027;BME280;57506;50.092;15.804;2022-07-06T12:01:36;99528.03;;;24.20;38.39
70027;BME280;57506;50.092;15.804;2022-07-06T12:04:07;99525.00;;;24.06;38.64
70027;BME280;57506;50.092;15.804;2022-07-06T12:06:33;99533.28;;;24.37;39.36
70027;BME280;57506;50.092;15.804;2022-07-06T12:09:00;99527.81;;;24.32;40.28
70027;BME280;57506;50.092;15.804;2022-07-06T12:11:34;99527.53;;;24.28;40.00
70027;BME280;57506;50.092;15.804;2022-07-06T12:14:16;99527.47;;;23.93;43.52
70027;BME280;57506;50.092;15.804;2022-07-06T12:16:43;99532.34;;;23.70;43.82
70027;BME280;57506;50.092;15.804;2022-07-06T12:19:09;99537.13;;;23.28;43.72
70027;BME280;57506;50.092;15.804;2022-07-06T12:21:42;99538.50;;;22.41;44.04
70027;BME280;57506;50.092;15.804;2022-07-06T12:24:08;99539.78;;;22.65;45.75
70027;BME280;57506;50.092;15.804;2022-07-06T12:26:39;99539.75;;;22.97;45.61
70027;BME280;57506;50.092;15.804;2022-07-06T12:29:07;99534.50;;;22.96;43.32
70027;BME280;57506;50.092;15.804;2022-07-06T12:31:53;99546.53;;;23.37;44.67
70027;BME280;57506;50.092;15.804;2022-07-06T12:34:22;99543.50;;;23.38;42.87
70027;BME280;57506;50.092;15.804;2022-07-06T12:36:55;99531.44;;;23.45;46.73
70027;BME280;57506;50.092;15.804;2022-07-06T12:39:24;99522.44;;;23.59;44.18
70027;BME280;57506;50.092;15.804;2022-07-06T12:42:35;99532.78;;;23.42;43.91
70027;BME280;57506;50.092;15.804;2022-07-06T12:44:47;99542.84;;;22.74;43.11
70027;BME280;57506;50.092;15.804;2022-07-06T12:47:17;99543.56;;;22.59;45.14
70027;BME280;57506;50.092;15.804;2022-07-06T12:49:43;99544.59;;;22.48;44.92